Time;durP1;ratioP1;P1;durP2;ratioP2;P2;SDS_P1;SDS_P2;PMS_P1;PMS_P2;Temp;Humidity;BMP_temperature;BMP_pressure;BME280_temperature;BME280_humidity;BME280_pressure;Samples;Min_cycle;Max_cycle;Signal;HPM_P1;HPM_P2
2020/12/28 00:00:09;;;;;;;7.75;5.32;;;8.90;99.90;;;;;;4803625;29;20035;-72
2020/12/28 00:02:39;;;;;;;8.13;4.68;;;8.90;99.90;;;;;;4808388;29;20041;-72
2020/12/28 00:05:07;;;;;;;6.68;4.25;;;8.90;99.90;;;;;;4808983;29;20039;-71
2020/12/28 00:07:34;;;;;;;7.30;4.32;;;8.90;99.90;;;;;;4803129;29;20113;-72
2020/12/28 00:10:03;;;;;;;6.72;4.70;;;8.90;99.90;;;;;;4803344;29;20027;-71
2020/12/28 00:12:29;;;;;;;5.47;3.60;;;8.90;99.90;;;;;;4804689;29;20447;-74
2020/12/28 00:14:56;;;;;;;9.00;4.40;;;8.90;99.90;;;;;;4797812;29;20042;-72
2020/12/28 00:17:22;;;;;;;6.22;3.88;;;8.90;99.90;;;;;;4795061;29;20486;-72
2020/12/28 00:19:54;;;;;;;5.88;4.43;;;8.90;99.90;;;;;;4803249;29;20470;-72
2020/12/28 00:22:23;;;;;;;10.25;5.13;;;8.80;99.90;;;;;;4785948;29;20042;-72
2020/12/28 00:24:52;;;;;;;6.28;4.70;;;8.80;99.90;;;;;;4801119;29;20034;-72
2020/12/28 00:27:22;;;;;;;9.65;5.10;;;8.80;99.90;;;;;;4802732;29;20054;-72
2020/12/28 00:29:52;;;;;;;10.00;5.47;;;8.80;99.90;;;;;;4802971;29;20061;-72
2020/12/28 00:32:22;;;;;;;7.85;4.70;;;8.80;99.90;;;;;;4802979;29;20485;-72
2020/12/28 00:35:03;;;;;;;9.00;4.53;;;8.80;99.90;;;;;;4802170;29;20027;-72
2020/12/28 00:37:44;;;;;;;8.98;4.93;;;8.90;99.90;;;;;;4786038;29;20414;-73
2020/12/28 00:40:27;;;;;;;7.55;4.53;;;8.90;99.90;;;;;;4802573;29;20088;-78
2020/12/28 00:43:13;;;;;;;9.25;5.40;;;8.90;99.90;;;;;;4802212;29;20414;-72
2020/12/28 00:45:45;;;;;;;6.97;4.47;;;8.90;99.90;;;;;;4799691;29;20645;-73
2020/12/28 00:48:13;;;;;;;8.27;4.80;;;8.90;99.90;;;;;;4802035;29;20066;-72
2020/12/28 00:50:40;;;;;;;6.72;5.03;;;8.90;99.90;;;;;;4802246;29;20034;-72
2020/12/28 00:53:06;;;;;;;7.78;4.80;;;8.90;99.90;;;;;;4801442;29;20042;-72
2020/12/28 00:55:33;;;;;;;7.65;4.80;;;9.00;99.90;;;;;;4802158;29;20079;-72
2020/12/28 00:58:00;;;;;;;9.40;5.47;;;8.90;99.90;;;;;;4801002;29;20042;-79
2020/12/28 01:00:42;;;;;;;8.05;5.43;;;9.00;99.90;;;;;;4786577;29;20398;-75
2020/12/28 01:03:29;;;;;;;8.07;5.22;;;8.90;99.90;;;;;;4800877;29;20066;-72
2020/12/28 01:06:25;;;;;;;10.52;6.05;;;8.90;99.90;;;;;;4802024;29;20093;-72
2020/12/28 08:30:57;;;;;;;3.70;1.88;;;11.30;99.90;;;;;;4297894;24;20055;-72
2020/12/28 08:33:23;;;;;;;5.75;1.95;;;11.40;99.90;;;;;;4819362;29;20574;-71
2020/12/28 08:35:52;;;;;;;6.32;2.13;;;11.50;99.90;;;;;;4816886;29;20038;-72
2020/12/28 08:38:28;;;;;;;7.20;1.52;;;11.60;99.90;;;;;;4817461;29;20038;-71
2020/12/28 08:40:55;;;;;;;3.85;1.50;;;11.60;99.90;;;;;;4820115;29;20026;-71
2020/12/28 08:43:21;;;;;;;2.17;1.48;;;11.60;99.90;;;;;;4817324;29;20023;-72
2020/12/28 08:45:48;;;;;;;3.67;1.60;;;11.70;99.90;;;;;;4819729;29;20575;-71
2020/12/28 08:48:20;;;;;;;15.73;2.08;;;11.70;99.90;;;;;;4819433;29;20049;-72
2020/12/28 08:50:46;;;;;;;6.22;1.50;;;11.80;99.90;;;;;;4818437;29;20039;-72
2020/12/28 08:53:21;;;;;;;4.93;1.50;;;11.90;99.90;;;;;;4817137;29;20061;-72
2020/12/28 08:55:57;;;;;;;3.38;1.10;;;12.00;99.90;;;;;;4817760;29;20061;-72
2020/12/28 08:58:23;;;;;;;3.88;1.38;;;12.10;99.90;;;;;;4817189;29;20042;-72
2020/12/28 09:00:49;;;;;;;4.70;1.98;;;12.20;99.90;;;;;;4819071;29;20027;-72
2020/12/28 09:03:15;;;;;;;7.05;2.03;;;12.20;99.90;;;;;;4819159;29;20034;-72
2020/12/28 09:05:41;;;;;;;6.50;1.33;;;12.30;99.90;;;;;;4817628;29;20030;-72
2020/12/28 09:08:07;;;;;;;4.65;1.60;;;12.40;99.90;;;;;;4817736;29;20037;-72
2020/12/28 09:10:33;;;;;;;4.10;1.10;;;12.40;99.90;;;;;;4818412;29;20052;-72
2020/12/28 09:13:00;;;;;;;3.13;1.27;;;12.50;99.90;;;;;;4818950;29;20039;-72
2020/12/28 09:15:26;;;;;;;3.75;1.20;;;12.50;99.90;;;;;;4818911;29;20125;-72
2020/12/28 09:17:52;;;;;;;3.92;1.35;;;12.50;99.90;;;;;;4818278;29;20034;-72
2020/12/28 09:20:18;;;;;;;4.38;1.88;;;12.50;99.90;;;;;;4816454;29;20030;-71
2020/12/28 09:22:44;;;;;;;4.10;1.50;;;12.60;99.90;;;;;;4817614;29;20031;-72
2020/12/28 09:25:11;;;;;;;4.03;1.33;;;12.80;99.90;;;;;;4818554;29;20042;-72
2020/12/28 09:27:37;;;;;;;4.30;1.40;;;12.80;99.90;;;;;;4818647;29;20034;-72
2020/12/28 09:30:07;;;;;;;2.50;1.45;;;12.90;99.90;;;;;;4818285;29;20077;-72
2020/12/28 09:32:34;;;;;;;3.40;1.20;;;12.90;99.90;;;;;;4817289;29;20085;-72
2020/12/28 09:35:00;;;;;;;3.00;1.40;;;12.80;99.90;;;;;;4818620;29;20042;-71
2020/12/28 09:37:26;;;;;;;2.97;1.10;;;12.70;99.90;;;;;;4819474;29;20145;-72
2020/12/28 09:39:52;;;;;;;4.28;1.25;;;12.60;99.90;;;;;;4819371;29;20547;-72
2020/12/28 09:42:18;;;;;;;2.65;0.82;;;12.60;99.90;;;;;;4817829;29;20041;-72
2020/12/28 09:44:44;;;;;;;4.53;0.85;;;13.00;99.90;;;;;;4818281;29;20034;-73
2020/12/28 09:47:10;;;;;;;6.22;0.88;;;13.30;99.90;;;;;;4817818;29;20031;-72
2020/12/28 09:49:36;;;;;;;1.08;0.50;;;13.50;99.90;;;;;;4816872;29;20378;-71
2020/12/28 09:52:02;;;;;;;3.63;0.98;;;13.70;99.90;;;;;;4816797;29;20049;-71
2020/12/28 09:54:28;;;;;;;3.78;0.75;;;13.90;99.90;;;;;;4818052;29;20026;-72
2020/12/28 09:56:55;;;;;;;8.23;1.10;;;14.00;99.90;;;;;;4818049;29;20034;-71
2020/12/28 09:59:21;;;;;;;2.10;0.70;;;13.90;99.90;;;;;;4811025;29;20026;-72
2020/12/28 10:01:47;;;;;;;2.65;1.17;;;14.00;99.90;;;;;;4809987;29;20121;-72
2020/12/28 10:04:13;;;;;;;4.03;0.80;;;14.10;99.90;;;;;;4808622;29;20042;-72
2020/12/28 10:06:40;;;;;;;3.13;1.02;;;14.20;99.90;;;;;;4818260;29;20069;-72
2020/12/28 10:09:11;;;;;;;1.50;0.40;;;14.30;99.90;;;;;;4817528;29;20034;-72
2020/12/28 10:11:42;;;;;;;1.98;0.60;;;14.40;99.90;;;;;;4815063;29;20045;-72
2020/12/28 10:14:14;;;;;;;4.00;0.85;;;14.50;99.90;;;;;;4817006;29;20056;-73
2020/12/28 10:16:46;;;;;;;3.92;0.57;;;14.50;99.90;;;;;;4815756;29;20513;-74
2020/12/28 10:19:17;;;;;;;2.78;0.88;;;14.40;99.90;;;;;;4810049;29;20042;-72
2020/12/28 10:21:49;;;;;;;8.32;0.63;;;14.40;99.90;;;;;;4816070;29;20090;-73
2020/12/28 10:24:20;;;;;;;2.83;0.90;;;14.60;99.90;;;;;;4819705;29;20034;-72
2020/12/28 10:26:51;;;;;;;6.07;0.77;;;14.80;99.90;;;;;;4817331;29;20038;-72
2020/12/28 10:29:17;;;;;;;4.03;1.17;;;14.90;99.90;;;;;;4821604;29;20122;-72
2020/12/28 10:31:43;;;;;;;2.00;0.60;;;14.80;99.90;;;;;;4830591;29;20049;-71
2020/12/28 10:34:09;;;;;;;4.15;1.50;;;15.00;99.90;;;;;;4838373;29;20436;-72
2020/12/28 10:36:36;;;;;;;3.20;0.85;;;15.10;99.90;;;;;;4838689;29;20489;-72
2020/12/28 10:39:02;;;;;;;2.08;0.50;;;15.00;99.90;;;;;;4839200;29;20540;-72
2020/12/28 10:41:30;;;;;;;2.00;0.68;;;15.10;99.90;;;;;;4838840;29;20034;-72
2020/12/28 10:43:57;;;;;;;2.80;0.75;;;15.10;99.90;;;;;;4838852;29;20504;-72
2020/12/28 10:46:40;;;;;;;2.15;1.00;;;15.10;99.90;;;;;;4830316;29;20085;-72
2020/12/28 10:49:21;;;;;;;4.55;1.05;;;14.80;99.90;;;;;;4836437;29;20041;-72
2020/12/28 10:51:49;;;;;;;1.50;0.85;;;14.90;99.90;;;;;;4822352;29;20038;-72
2020/12/28 10:54:16;;;;;;;2.70;0.80;;;14.70;99.90;;;;;;4831898;29;20042;-72
2020/12/28 10:56:42;;;;;;;4.88;0.77;;;14.50;99.90;;;;;;4838995;29;20501;-72
2020/12/28 10:59:19;;;;;;;0.98;0.40;;;14.40;99.90;;;;;;4838400;29;20065;-71
2020/12/28 11:02:01;;;;;;;3.17;0.90;;;14.60;99.90;;;;;;4839741;29;20030;-73
2020/12/28 11:04:46;;;;;;;2.55;0.80;;;14.90;99.90;;;;;;4822469;29;20385;-72
2020/12/28 11:07:21;;;;;;;1.33;0.65;;;15.00;99.90;;;;;;4836873;29;20057;-72
2020/12/28 11:09:51;;;;;;;2.38;1.08;;;15.10;99.90;;;;;;4837848;29;20089;-71
2020/12/28 11:12:28;;;;;;;5.75;1.10;;;14.80;99.90;;;;;;4838514;29;20398;-73
2020/12/28 11:15:18;;;;;;;1.35;0.77;;;14.50;99.90;;;;;;4822460;29;20037;-72
2020/12/28 11:17:52;;;;;;;2.83;0.85;;;14.40;99.90;;;;;;4837834;29;20130;-72
2020/12/28 11:20:25;;;;;;;5.00;0.77;;;14.60;99.90;;;;;;4838350;29;20083;-72
2020/12/28 11:22:56;;;;;;;3.70;0.95;;;14.60;99.90;;;;;;4838925;29;20041;-71
2020/12/28 11:25:26;;;;;;;7.28;1.10;;;14.40;99.90;;;;;;4838934;29;20101;-71
2020/12/28 11:28:01;;;;;;;6.93;1.00;;;14.70;99.90;;;;;;4838574;29;20071;-71
2020/12/28 11:30:31;;;;;;;2.97;0.80;;;14.60;99.90;;;;;;4837583;29;20026;-72
2020/12/28 11:32:58;;;;;;;7.10;1.10;;;14.70;99.90;;;;;;4837207;29;20050;-72
2020/12/28 11:35:24;;;;;;;3.03;0.50;;;14.70;99.90;;;;;;4838432;29;20081;-72
2020/12/28 11:37:50;;;;;;;3.72;1.00;;;14.80;99.90;;;;;;4838620;29;20117;-72
2020/12/28 11:40:16;;;;;;;3.42;0.88;;;14.70;99.90;;;;;;4837984;29;20382;-72
2020/12/28 11:42:42;;;;;;;8.35;0.95;;;15.00;99.90;;;;;;4838882;29;20037;-72
2020/12/28 11:45:09;;;;;;;4.60;1.02;;;15.10;99.90;;;;;;4821820;29;20057;-71
2020/12/28 11:47:36;;;;;;;3.83;0.80;;;15.30;99.90;;;;;;4838453;29;20450;-72
2020/12/28 11:50:06;;;;;;;3.63;0.88;;;15.50;99.90;;;;;;4838459;29;20090;-72
2020/12/28 11:52:33;;;;;;;9.52;1.23;;;15.50;99.90;;;;;;4838583;29;20128;-72
2020/12/28 11:55:00;;;;;;;6.93;1.02;;;15.70;99.90;;;;;;4838078;29;20025;-72
2020/12/28 11:57:26;;;;;;;4.82;1.85;;;15.60;99.90;;;;;;4837988;29;20126;-72
2020/12/28 11:59:52;;;;;;;2.67;0.82;;;15.70;99.90;;;;;;4836630;29;20094;-72
2020/12/28 12:02:22;;;;;;;5.85;1.23;;;15.70;99.90;;;;;;4821668;29;20038;-72
2020/12/28 12:04:51;;;;;;;5.13;1.95;;;15.70;99.90;;;;;;4837503;29;20040;-72
2020/12/28 12:07:20;;;;;;;9.02;2.22;;;15.50;99.90;;;;;;4838056;29;20393;-72
2020/12/28 12:09:46;;;;;;;3.47;1.20;;;15.30;99.90;;;;;;4836449;29;20033;-72
2020/12/28 12:12:13;;;;;;;7.55;1.38;;;15.10;99.90;;;;;;4837327;29;20046;-73
2020/12/28 12:14:39;;;;;;;3.28;1.42;;;15.20;99.90;;;;;;4837714;29;20024;-72
2020/12/28 12:17:05;;;;;;;5.80;1.27;;;15.00;99.90;;;;;;4821378;29;20132;-73
2020/12/28 12:19:32;;;;;;;3.85;1.20;;;15.10;99.90;;;;;;4837269;29;20038;-72
2020/12/28 12:21:58;;;;;;;6.18;1.00;;;15.30;99.90;;;;;;4838179;29;20488;-73
2020/12/28 12:24:24;;;;;;;5.38;1.08;;;15.50;99.90;;;;;;4837166;29;20370;-72
2020/12/28 12:26:50;;;;;;;5.75;1.55;;;15.60;99.90;;;;;;4837888;29;20488;-72
2020/12/28 12:29:16;;;;;;;5.68;1.52;;;15.80;99.90;;;;;;4835884;29;20036;-72
2020/12/28 12:31:42;;;;;;;4.10;1.30;;;15.60;99.90;;;;;;4837090;29;20052;-73
2020/12/28 12:34:09;;;;;;;7.88;1.80;;;15.70;99.90;;;;;;4837263;29;20128;-72
2020/12/28 12:36:35;;;;;;;4.65;0.85;;;15.90;99.90;;;;;;4838140;29;20036;-73
2020/12/28 12:39:01;;;;;;;5.50;1.27;;;16.00;99.90;;;;;;4837383;29;20069;-73
2020/12/28 12:41:27;;;;;;;5.22;1.65;;;16.00;99.90;;;;;;4833244;29;20121;-71
2020/12/28 12:43:53;;;;;;;9.15;1.40;;;16.30;99.90;;;;;;4837478;29;20041;-72
2020/12/28 12:46:19;;;;;;;5.25;0.90;;;16.10;99.90;;;;;;4837447;29;20388;-71
2020/12/28 12:48:45;;;;;;;8.32;1.10;;;15.90;99.90;;;;;;4837356;29;20503;-71
2020/12/28 12:51:12;;;;;;;7.65;2.45;;;15.80;99.90;;;;;;4836794;29;20080;-71
2020/12/28 12:53:38;;;;;;;7.43;1.80;;;15.40;99.90;;;;;;4837217;29;20560;-71
2020/12/28 12:56:06;;;;;;;6.13;1.80;;;15.10;99.90;;;;;;4836950;29;20029;-72
2020/12/28 12:58:32;;;;;;;5.57;1.58;;;14.80;99.90;;;;;;4837603;29;20087;-71
2020/12/28 13:00:59;;;;;;;9.32;2.30;;;14.60;99.90;;;;;;4835464;29;20405;-72
2020/12/28 13:03:25;;;;;;;13.30;2.38;;;14.40;99.90;;;;;;4834424;29;20069;-71
2020/12/28 13:05:51;;;;;;;3.95;2.40;;;14.40;99.90;;;;;;4835605;29;20053;-71
2020/12/28 13:08:18;;;;;;;3.88;1.10;;;14.30;99.90;;;;;;4837033;29;20180;-71
2020/12/28 13:11:01;;;;;;;8.82;1.30;;;14.60;99.90;;;;;;4836939;29;20435;-72
2020/12/28 13:13:32;;;;;;;2.58;1.60;;;14.70;99.90;;;;;;4836855;29;20037;-71
2020/12/28 13:15:58;;;;;;;12.15;1.80;;;15.00;99.90;;;;;;4833594;29;20026;-72
2020/12/28 13:18:24;;;;;;;4.68;1.40;;;14.90;99.90;;;;;;4834175;29;20045;-71
2020/12/28 13:20:50;;;;;;;7.05;1.63;;;14.90;99.90;;;;;;4834957;29;20045;-71
2020/12/28 13:23:16;;;;;;;12.00;1.63;;;14.80;99.90;;;;;;4836582;29;20086;-72
2020/12/28 13:25:43;;;;;;;4.95;1.60;;;14.90;99.90;;;;;;4836165;29;20041;-72
2020/12/28 13:28:09;;;;;;;5.40;1.98;;;15.00;99.90;;;;;;4833029;29;20120;-71
2020/12/28 13:30:35;;;;;;;6.20;2.10;;;14.90;99.90;;;;;;4831121;29;20050;-71
2020/12/28 13:33:01;;;;;;;4.88;2.13;;;14.90;99.90;;;;;;4830395;29;20045;-71
2020/12/28 13:35:27;;;;;;;5.70;1.98;;;14.80;99.90;;;;;;4835061;29;20030;-71
2020/12/28 13:37:53;;;;;;;5.53;1.70;;;14.70;99.90;;;;;;4832413;29;20151;-71
2020/12/28 13:40:19;;;;;;;5.90;2.28;;;14.80;99.90;;;;;;4833591;29;20108;-70
2020/12/28 13:42:45;;;;;;;5.85;1.80;;;14.80;99.90;;;;;;4833440;29;20082;-70
2020/12/28 13:45:13;;;;;;;8.63;1.77;;;14.80;99.90;;;;;;4831332;29;20392;-70
2020/12/28 13:47:39;;;;;;;17.45;3.20;;;14.70;99.90;;;;;;4831950;29;20485;-70
2020/12/28 13:50:05;;;;;;;5.68;1.92;;;14.60;99.90;;;;;;4831337;29;20497;-70
2020/12/28 13:52:32;;;;;;;12.82;1.92;;;14.50;99.90;;;;;;4833751;29;20094;-71
2020/12/28 13:54:59;;;;;;;8.13;2.70;;;14.60;99.90;;;;;;4836298;29;20030;-72
2020/12/28 13:57:25;;;;;;;5.70;1.80;;;14.50;99.90;;;;;;4819615;29;20605;-71
2020/12/28 13:59:51;;;;;;;3.08;1.30;;;14.40;99.90;;;;;;4835549;29;20370;-71
2020/12/28 14:02:17;;;;;;;9.45;1.45;;;14.40;99.90;;;;;;4825537;29;20481;-72
2020/12/28 14:04:44;;;;;;;7.07;1.70;;;14.30;99.90;;;;;;4834232;29;21033;-71
2020/12/28 14:07:10;;;;;;;7.07;2.28;;;14.40;99.90;;;;;;4813028;29;20116;-73
2020/12/28 14:09:36;;;;;;;6.53;1.90;;;14.40;99.90;;;;;;4824684;29;20037;-71
2020/12/28 14:12:02;;;;;;;7.07;1.40;;;14.40;99.90;;;;;;4819378;29;20118;-71
2020/12/28 14:14:29;;;;;;;6.30;2.70;;;14.30;99.90;;;;;;4820215;29;20581;-71
2020/12/28 14:16:55;;;;;;;5.95;2.50;;;14.30;99.90;;;;;;4820734;29;20589;-71
2020/12/28 14:19:21;;;;;;;7.13;1.77;;;14.30;99.90;;;;;;4801252;29;20048;-71
2020/12/28 14:21:47;;;;;;;10.63;2.30;;;14.20;99.90;;;;;;4799270;29;20030;-71
2020/12/28 14:24:13;;;;;;;8.02;1.83;;;14.10;99.90;;;;;;4812114;29;20050;-71
2020/12/28 14:26:39;;;;;;;10.15;1.98;;;14.00;99.90;;;;;;4834020;29;20033;-71
2020/12/28 14:29:05;;;;;;;5.38;1.30;;;13.90;99.90;;;;;;4838334;29;20038;-71
2020/12/28 14:31:31;;;;;;;9.32;2.03;;;13.90;99.90;;;;;;4820170;29;20054;-70
2020/12/28 14:33:57;;;;;;;16.80;2.58;;;13.90;99.90;;;;;;4819442;29;20496;-71
2020/12/28 14:36:24;;;;;;;11.55;1.95;;;13.90;99.90;;;;;;4819482;29;20065;-71
2020/12/28 14:38:50;;;;;;;11.27;3.22;;;13.90;99.90;;;;;;4834693;29;20397;-71
2020/12/28 14:41:19;;;;;;;6.35;1.52;;;13.90;99.90;;;;;;4820146;29;20042;-71
2020/12/28 14:43:49;;;;;;;6.78;2.10;;;13.90;99.90;;;;;;4821091;29;20057;-71
2020/12/28 14:46:21;;;;;;;6.22;2.70;;;14.00;99.90;;;;;;4820392;29;20037;-71
2020/12/28 14:48:48;;;;;;;8.25;1.83;;;14.10;99.90;;;;;;4819686;29;20075;-71
2020/12/28 14:51:16;;;;;;;9.07;1.95;;;14.30;99.90;;;;;;4819130;29;20070;-72
2020/12/28 14:53:45;;;;;;;5.65;1.48;;;14.30;99.90;;;;;;4820759;29;20026;-72
2020/12/28 14:56:22;;;;;;;9.85;2.13;;;14.20;99.90;;;;;;4818857;29;20098;-71
2020/12/28 14:58:48;;;;;;;11.05;2.63;;;14.20;99.90;;;;;;4819820;29;20371;-71
2020/12/28 15:01:22;;;;;;;11.05;3.20;;;14.20;99.90;;;;;;4817010;29;20401;-71
2020/12/28 15:03:49;;;;;;;7.75;2.28;;;14.20;99.90;;;;;;4818770;29;20409;-71
2020/12/28 15:06:17;;;;;;;9.05;2.67;;;14.10;99.90;;;;;;4819519;29;20413;-71
2020/12/28 15:08:44;;;;;;;8.43;2.20;;;14.00;99.90;;;;;;4820263;29;20030;-72
2020/12/28 15:11:11;;;;;;;10.60;2.42;;;13.90;99.90;;;;;;4820132;29;20030;-72
2020/12/28 15:13:37;;;;;;;8.95;2.40;;;13.90;99.90;;;;;;4819456;29;20085;-72
2020/12/28 15:16:04;;;;;;;8.77;1.90;;;13.80;99.90;;;;;;4818589;29;20568;-76
2020/12/28 15:18:30;;;;;;;14.38;3.20;;;13.80;99.90;;;;;;4801914;29;20049;-76
2020/12/28 15:20:56;;;;;;;7.75;1.83;;;13.70;99.90;;;;;;4816663;29;20164;-76
2020/12/28 15:23:23;;;;;;;9.30;2.00;;;13.70;99.90;;;;;;4812716;29;20459;-77
2020/12/28 15:25:49;;;;;;;14.45;3.35;;;13.70;99.90;;;;;;4817861;29;20101;-76
2020/12/28 15:28:16;;;;;;;14.00;1.73;;;13.70;99.90;;;;;;4818361;29;20375;-78
2020/12/28 15:30:42;;;;;;;14.20;2.20;;;13.70;99.90;;;;;;4818241;29;20594;-76
2020/12/28 15:33:08;;;;;;;10.52;2.08;;;13.70;99.90;;;;;;4835191;29;20135;-75
2020/12/28 15:35:34;;;;;;;7.38;2.03;;;13.70;99.90;;;;;;4836597;29;20041;-74
2020/12/28 15:38:00;;;;;;;10.90;2.35;;;13.70;99.90;;;;;;4837079;29;20135;-74
2020/12/28 15:40:26;;;;;;;12.23;2.17;;;13.70;99.90;;;;;;4830293;29;20514;-75
2020/12/28 15:42:52;;;;;;;14.63;3.97;;;13.70;99.90;;;;;;4835933;29;20061;-75
2020/12/28 15:45:18;;;;;;;6.72;2.65;;;13.60;99.90;;;;;;4834033;29;20106;-75
2020/12/28 15:47:44;;;;;;;9.32;2.78;;;13.70;99.90;;;;;;4833785;29;20071;-78
2020/12/28 15:50:10;;;;;;;12.25;3.00;;;13.70;99.90;;;;;;4833116;29;20026;-75
2020/12/28 15:52:36;;;;;;;22.30;2.38;;;13.60;99.90;;;;;;4836234;29;20050;-80
2020/12/28 15:55:03;;;;;;;10.05;2.80;;;13.60;99.90;;;;;;4833799;29;20037;-75
2020/12/28 15:57:29;;;;;;;11.40;2.35;;;13.60;99.90;;;;;;4836583;29;20038;-79
2020/12/28 15:59:57;;;;;;;14.90;2.72;;;13.60;99.90;;;;;;4836310;29;20034;-75
2020/12/28 16:02:23;;;;;;;10.15;2.35;;;13.60;99.90;;;;;;4836915;29;20548;-75
2020/12/28 16:04:49;;;;;;;10.50;2.72;;;13.60;99.90;;;;;;4834122;29;20475;-75
2020/12/28 16:07:15;;;;;;;7.90;1.88;;;13.70;99.90;;;;;;4835773;29;20446;-75
2020/12/28 16:09:41;;;;;;;8.55;2.60;;;13.60;99.90;;;;;;4834908;29;20094;-75
2020/12/28 16:12:07;;;;;;;10.05;2.45;;;13.60;99.90;;;;;;4836973;29;20083;-75
2020/12/28 16:14:33;;;;;;;10.32;1.98;;;13.70;99.90;;;;;;4837827;29;20030;-75
2020/12/28 16:17:07;;;;;;;7.65;2.00;;;13.70;99.90;;;;;;4836360;29;20065;-76
2020/12/28 16:19:37;;;;;;;10.07;2.88;;;13.70;99.90;;;;;;4836923;29;20022;-75
2020/12/28 16:22:04;;;;;;;7.05;2.55;;;13.70;99.90;;;;;;4838058;29;20026;-75
2020/12/28 16:24:30;;;;;;;8.07;2.70;;;13.70;99.90;;;;;;4837167;29;20091;-75
2020/12/28 16:26:56;;;;;;;9.40;2.03;;;13.70;99.90;;;;;;4835126;29;20026;-75
2020/12/28 16:29:22;;;;;;;8.82;2.40;;;13.70;99.90;;;;;;4836504;29;20095;-75
2020/12/28 16:31:56;;;;;;;9.38;2.03;;;13.70;99.90;;;;;;4836725;29;20062;-76
2020/12/28 16:34:23;;;;;;;6.68;1.90;;;13.70;99.90;;;;;;4836485;29;20767;-76
2020/12/28 16:36:56;;;;;;;10.52;1.88;;;13.70;99.90;;;;;;4837165;29;20112;-76
2020/12/28 16:39:23;;;;;;;10.85;2.15;;;13.70;99.90;;;;;;4837363;29;20026;-76
2020/12/28 16:41:50;;;;;;;9.38;3.08;;;13.70;99.90;;;;;;4835152;29;20087;-77
2020/12/28 16:44:18;;;;;;;10.05;3.28;;;13.70;99.90;;;;;;4837504;29;20038;-77
2020/12/28 16:46:45;;;;;;;9.23;2.20;;;13.70;99.90;;;;;;4836093;29;20069;-77
2020/12/28 16:49:11;;;;;;;5.90;2.40;;;13.70;99.90;;;;;;4836458;29;20042;-79
2020/12/28 16:51:37;;;;;;;11.63;2.63;;;13.70;99.90;;;;;;4836358;29;20515;-79
2020/12/28 16:54:03;;;;;;;12.05;2.65;;;13.60;99.90;;;;;;4819573;29;20056;-79
2020/12/28 16:56:29;;;;;;;9.75;2.63;;;13.60;99.90;;;;;;4835769;29;20507;-79
2020/12/28 16:58:55;;;;;;;15.88;3.63;;;13.50;99.90;;;;;;4819386;29;20106;-79
2020/12/28 17:01:22;;;;;;;14.20;3.15;;;13.50;99.90;;;;;;4836631;29;20404;-78
2020/12/28 17:03:48;;;;;;;11.30;2.35;;;13.50;99.90;;;;;;4819875;29;20388;-79
2020/12/28 17:06:20;;;;;;;8.18;2.20;;;13.50;99.90;;;;;;4836132;29;20718;-78
2020/12/28 17:08:47;;;;;;;13.25;2.00;;;13.50;99.90;;;;;;4834881;29;20038;-75
2020/12/28 17:11:14;;;;;;;16.20;2.10;;;13.50;99.90;;;;;;4836569;29;20053;-74
2020/12/28 17:13:41;;;;;;;13.10;2.13;;;13.40;99.90;;;;;;4835068;29;20034;-76
2020/12/28 17:16:10;;;;;;;5.40;1.90;;;13.40;99.90;;;;;;4829450;29;20046;-75
2020/12/28 17:18:38;;;;;;;11.45;2.80;;;13.50;99.90;;;;;;4813850;29;20050;-75
2020/12/28 17:21:07;;;;;;;11.48;2.25;;;13.50;99.90;;;;;;4836188;29;20026;-75
2020/12/28 17:23:33;;;;;;;4.07;1.63;;;13.50;99.90;;;;;;4834896;29;20061;-76
2020/12/28 17:26:01;;;;;;;10.65;2.80;;;13.40;99.90;;;;;;4835793;29;20033;-75
2020/12/28 17:28:27;;;;;;;10.32;2.50;;;13.50;99.90;;;;;;4836917;29;20082;-76
2020/12/28 17:30:53;;;;;;;7.35;1.58;;;13.50;99.90;;;;;;4834691;29;20058;-77
2020/12/28 17:33:20;;;;;;;10.38;2.72;;;13.50;99.90;;;;;;4836894;29;20050;-76
2020/12/28 17:35:46;;;;;;;8.65;1.92;;;13.60;99.90;;;;;;4835255;29;20375;-77
2020/12/28 17:38:12;;;;;;;14.20;2.83;;;13.60;99.90;;;;;;4831102;29;20541;-76
2020/12/28 17:40:39;;;;;;;8.07;2.47;;;13.60;99.90;;;;;;4830355;29;20045;-77
2020/12/28 17:43:05;;;;;;;8.27;1.85;;;13.60;99.90;;;;;;4830171;29;20033;-76
2020/12/28 17:45:32;;;;;;;8.63;2.60;;;13.60;99.90;;;;;;4836116;29;20509;-76
2020/12/28 17:47:58;;;;;;;16.10;3.05;;;13.60;99.90;;;;;;4835510;29;20037;-76
2020/12/28 17:50:24;;;;;;;10.40;1.35;;;13.50;99.90;;;;;;4836494;29;20026;-76
2020/12/28 17:52:50;;;;;;;17.35;1.95;;;13.60;99.90;;;;;;4837564;29;20030;-77
2020/12/28 17:55:16;;;;;;;20.45;2.42;;;13.60;99.90;;;;;;4837447;29;20109;-76
2020/12/28 17:57:42;;;;;;;9.23;2.45;;;13.60;99.90;;;;;;4836616;29;20707;-77
2020/12/28 18:00:08;;;;;;;9.27;2.05;;;13.60;99.90;;;;;;4837265;29;20030;-77
2020/12/28 18:02:38;;;;;;;8.43;2.28;;;13.60;99.90;;;;;;4836714;29;20056;-76
2020/12/28 18:05:04;;;;;;;7.80;2.15;;;13.60;99.90;;;;;;4834512;29;20137;-76
2020/12/28 18:07:31;;;;;;;14.88;2.90;;;13.60;99.90;;;;;;4834709;29;20040;-76
2020/12/28 18:10:01;;;;;;;9.93;1.40;;;13.70;99.90;;;;;;4827922;29;20022;-75
2020/12/28 18:12:28;;;;;;;8.35;2.35;;;13.70;99.90;;;;;;4828253;29;20046;-76
2020/12/28 18:14:55;;;;;;;9.07;2.35;;;13.70;99.90;;;;;;4837322;29;20464;-77
2020/12/28 18:17:28;;;;;;;9.30;2.08;;;13.60;99.90;;;;;;4835251;29;20051;-76
2020/12/28 18:19:54;;;;;;;5.95;1.60;;;13.60;99.90;;;;;;4833429;29;20083;-76
2020/12/28 18:22:21;;;;;;;8.65;2.22;;;13.60;99.90;;;;;;4834479;29;20457;-76
2020/12/28 18:24:48;;;;;;;8.15;2.35;;;13.60;99.90;;;;;;4832328;29;20070;-75
2020/12/28 18:27:14;;;;;;;15.50;3.33;;;13.70;99.90;;;;;;4833063;29;20042;-75
2020/12/28 18:29:41;;;;;;;8.63;2.00;;;13.70;99.90;;;;;;4832471;29;20022;-75
2020/12/28 18:32:08;;;;;;;9.35;2.47;;;13.70;99.90;;;;;;4835995;29;20144;-76
2020/12/28 18:34:34;;;;;;;8.35;1.67;;;13.60;99.90;;;;;;4835636;29;20096;-75
2020/12/28 18:37:00;;;;;;;21.30;3.40;;;13.60;99.90;;;;;;4829007;29;20562;-80
2020/12/28 18:39:27;;;;;;;10.77;2.30;;;13.60;99.90;;;;;;4817027;29;20033;-81
2020/12/28 18:42:03;;;;;;;9.38;2.00;;;13.60;99.90;;;;;;4824391;29;20026;-76
2020/12/28 18:44:40;;;;;;;6.65;1.77;;;13.60;99.90;;;;;;4837229;29;20040;-76
2020/12/28 18:47:06;;;;;;;12.27;2.17;;;13.60;99.90;;;;;;4839020;29;20041;-75
2020/12/28 18:49:34;;;;;;;7.72;2.30;;;13.60;99.90;;;;;;4840558;29;20026;-75
2020/12/28 18:52:01;;;;;;;8.55;1.63;;;13.60;99.90;;;;;;4838956;29;20042;-77
2020/12/28 18:54:31;;;;;;;10.77;3.30;;;13.70;99.90;;;;;;4839054;29;20042;-76
2020/12/28 18:56:59;;;;;;;14.77;3.10;;;13.70;99.90;;;;;;4828642;29;20054;-76
2020/12/28 18:59:30;;;;;;;9.60;2.05;;;13.70;99.90;;;;;;4837722;29;20041;-76
2020/12/28 19:01:57;;;;;;;7.32;1.90;;;13.70;99.90;;;;;;4827450;29;20026;-76
2020/12/28 19:04:25;;;;;;;13.10;2.28;;;13.70;99.90;;;;;;4840717;29;20032;-75
2020/12/28 19:06:56;;;;;;;8.63;2.05;;;13.80;99.90;;;;;;4838291;29;20558;-75
2020/12/28 19:09:24;;;;;;;13.43;2.38;;;13.80;99.90;;;;;;4835884;29;20034;-76
2020/12/28 19:11:55;;;;;;;5.90;1.75;;;13.70;99.90;;;;;;4836840;29;20567;-76
2020/12/28 19:14:23;;;;;;;20.73;3.03;;;13.70;99.90;;;;;;4814284;29;20067;-76
2020/12/28 19:16:51;;;;;;;17.00;1.95;;;13.70;99.90;;;;;;4840548;29;20030;-76
2020/12/28 19:19:19;;;;;;;15.05;2.90;;;13.70;99.90;;;;;;4825624;29;20045;-75
2020/12/28 19:21:49;;;;;;;10.00;2.60;;;13.70;99.90;;;;;;4825846;29;20029;-76
2020/12/28 19:24:15;;;;;;;12.48;2.05;;;13.70;99.90;;;;;;4838813;29;20026;-76
2020/12/28 19:26:45;;;;;;;16.02;3.13;;;13.70;99.90;;;;;;4839633;29;20105;-76
2020/12/28 19:29:12;;;;;;;13.45;3.65;;;13.80;99.90;;;;;;4840597;29;20038;-77
2020/12/28 19:31:38;;;;;;;7.13;1.98;;;13.80;99.90;;;;;;4837884;29;20054;-76
2020/12/28 19:34:05;;;;;;;19.60;3.50;;;13.90;99.90;;;;;;4827655;29;20040;-76
2020/12/28 19:36:31;;;;;;;16.83;2.85;;;13.90;99.90;;;;;;4840247;29;20030;-76
2020/12/28 19:38:58;;;;;;;17.20;3.33;;;13.80;99.90;;;;;;4827841;29;20042;-76
2020/12/28 19:41:25;;;;;;;17.92;3.65;;;13.90;99.90;;;;;;4837801;29;20046;-76
2020/12/28 19:43:51;;;;;;;20.13;4.65;;;13.80;99.90;;;;;;4839696;29;20039;-72
2020/12/28 19:46:22;;;;;;;8.02;2.30;;;13.80;99.90;;;;;;4839956;29;20114;-73
2020/12/28 19:48:49;;;;;;;21.50;3.55;;;13.80;99.90;;;;;;4840145;29;20045;-73
2020/12/28 19:51:15;;;;;;;8.63;2.65;;;13.80;99.90;;;;;;4824187;29;20030;-73
2020/12/28 19:53:41;;;;;;;18.48;3.83;;;13.70;99.90;;;;;;4836853;29;20319;-75
2020/12/28 19:56:08;;;;;;;14.05;3.20;;;13.70;99.90;;;;;;4832689;29;20026;-75
2020/12/28 19:58:37;;;;;;;8.32;2.60;;;13.70;99.90;;;;;;4830440;29;20030;-73
2020/12/28 20:01:05;;;;;;;11.15;3.20;;;13.70;99.90;;;;;;4837613;29;20400;-72
2020/12/28 20:03:31;;;;;;;12.10;2.38;;;13.70;99.90;;;;;;4824761;29;20035;-74
2020/12/28 20:05:57;;;;;;;10.15;2.05;;;13.70;99.90;;;;;;4839482;29;20032;-74
2020/12/28 20:08:24;;;;;;;9.35;2.15;;;13.80;99.90;;;;;;4823171;29;20026;-72
2020/12/28 20:10:50;;;;;;;5.20;2.25;;;13.80;99.90;;;;;;4839762;29;20434;-73